Portada
METAR-TAF:

METAR-TAF

Aeroports :

Aeroport de Reykjavík

Reykjavík, Islàndia

latitud: 64-08N, longitud: 021-54W, altitud: 54 m

Observació

L'informe es va fer fa 1 hora i 7 minuts, a les 09:00 UTC
Vent 9 kt del Nord, variant entre Nord/Nord-Oest i Nord-Est
Temperatura 1°C
Humitat 59%
Pressió 1013 hPa
Visibilitat 10 km o més
Escasses núvols a una alçada de 3200 ft

METAR: BIRK 150900Z 01009KT 330V040 9999 FEW032 01/M06 Q1013

Hora: 10:07 (10:07 UTC)

Pronòstic

L'informe es va fer fa 2 hores i 26 minuts, a les 07:41 UTC
Pronòstic vàlid del 15 a les 09 UTC al 16 a les 09 UTC
Vent 8 kt del Est/Nord-Est
Visibilitat 10 km o més
Escasses núvols a una alçada de 3000 ft
Evolucionant progressivament
l' 15 a les 12 UTC al 15 a les 14 UTC
Vent 12 kt del Nord

TAF: BIRK 150741Z 1509/1609 06008KT 9999 FEW030 TX02/1515Z TNM02/1606Z BECMG 1512/1514 35012KT

Observacions i pronòstics meteorològics de més de 4000 aeroports (METAR i TAF).

Les estacions disponibles són els punts grocs i vermells al mapa.

Posi el ratolí al punt desitjat per veure el nom de l'estació.

Feu clic per veure les observacions i els pronòstics meteorològics.

Per canviar el mapa: feu clic els botons verds amb una creu de color negre per apropar; al botó verd amb un guió per allunyar la imatge; o en les fletxes verdes per a mapes adjacents.


METAR-TAF: